createdAt,value
2023-01-21T00:00:03.472Z,-0.23
2023-01-21T00:02:17.093Z,-0.23
2023-01-21T00:04:29.083Z,-0.23
2023-01-21T00:06:41.183Z,-0.26
2023-01-21T00:08:53.280Z,-0.31
2023-01-21T00:11:06.912Z,-0.31
2023-01-21T00:13:19.810Z,-0.30
2023-01-21T00:15:32.627Z,-0.27
2023-01-21T00:17:46.121Z,-0.27
2023-01-21T00:19:58.259Z,-0.26
2023-01-21T00:22:10.344Z,-0.26
2023-01-21T00:24:22.407Z,-0.27
2023-01-21T00:26:35.998Z,-0.26
2023-01-21T00:28:48.091Z,-0.26
2023-01-21T00:31:00.316Z,-0.23
2023-01-21T00:33:12.288Z,-0.19
2023-01-21T00:35:24.653Z,-0.22
2023-01-21T00:37:36.743Z,-0.19
2023-01-21T00:39:50.316Z,-0.19
2023-01-21T00:42:02.413Z,-0.18
2023-01-21T00:44:14.538Z,-0.18
2023-01-21T00:46:26.648Z,-0.13
2023-01-21T00:48:40.183Z,-0.15
2023-01-21T00:50:53.788Z,-0.12
2023-01-21T00:53:05.846Z,-0.12
2023-01-21T00:55:18.967Z,-0.09
2023-01-21T00:57:32.519Z,-0.12
2023-01-21T00:59:44.613Z,-0.12
2023-01-21T01:01:56.820Z,-0.12
2023-01-21T01:04:08.899Z,-0.11
2023-01-21T01:06:21.385Z,-0.13
2023-01-21T01:08:33.069Z,-0.12
2023-01-21T01:10:45.129Z,-0.12
2023-01-21T01:12:57.206Z,-0.12
2023-01-21T01:15:10.838Z,-0.09
2023-01-21T01:17:23.236Z,-0.08
2023-01-21T01:19:36.792Z,-0.11
2023-01-21T01:21:50.351Z,-0.11
2023-01-21T01:24:02.481Z,-0.12
2023-01-21T01:26:16.065Z,-0.12
2023-01-21T01:28:28.150Z,-0.11
2023-01-21T01:30:41.790Z,-0.12
2023-01-21T01:32:53.856Z,-0.11
2023-01-21T01:35:05.919Z,-0.09
2023-01-21T01:37:19.034Z,-0.09
2023-01-21T01:39:31.149Z,-0.09
2023-01-21T01:41:43.232Z,-0.08
2023-01-21T01:43:56.830Z,-0.08
2023-01-21T01:46:08.919Z,-0.08
2023-01-21T01:48:21.043Z,-0.08
2023-01-21T01:50:33.147Z,-0.06
2023-01-21T01:52:45.218Z,-0.06
2023-01-21T01:54:57.302Z,-0.05
2023-01-21T01:57:10.350Z,-0.05
2023-01-21T01:59:22.452Z,-0.05
2023-01-21T02:01:34.578Z,-0.01
2023-01-21T02:03:46.609Z,-0.04
2023-01-21T02:05:58.682Z,-0.01
2023-01-21T02:08:10.796Z,-0.01
2023-01-21T02:10:22.858Z,-0.01
2023-01-21T02:12:34.957Z,-0.01
2023-01-21T02:14:47.531Z,-0.01
2023-01-21T02:16:59.090Z,-0.04
2023-01-21T02:19:11.209Z,-0.01
2023-01-21T02:21:23.286Z,-0.04
2023-01-21T02:23:35.423Z,-0.04
2023-01-21T02:25:47.470Z,-0.04
2023-01-21T02:28:00.578Z,-0.05
2023-01-21T02:30:12.652Z,-0.01
2023-01-21T02:32:24.729Z,0.00
2023-01-21T02:34:36.861Z,0.00
2023-01-21T02:36:48.901Z,0.02
2023-01-21T02:39:00.991Z,0.02
2023-01-21T02:41:13.098Z,0.02
2023-01-21T02:43:25.156Z,0.02
2023-01-21T02:45:37.271Z,0.03
2023-01-21T02:47:49.349Z,0.02
2023-01-21T02:50:01.998Z,0.02
2023-01-21T02:52:13.810Z,0.00
2023-01-21T02:54:27.389Z,-0.01
2023-01-21T02:56:39.516Z,-0.04
2023-01-21T02:58:53.076Z,-0.01
2023-01-21T03:01:07.660Z,-0.01
2023-01-21T03:03:19.754Z,-0.04
2023-01-21T03:05:33.332Z,-0.04
2023-01-21T03:07:46.501Z,-0.01
2023-01-21T03:09:59.990Z,0.00
2023-01-21T03:12:13.579Z,-0.04
2023-01-21T03:14:26.660Z,-0.04
2023-01-21T03:16:40.292Z,-0.01
2023-01-21T03:18:52.435Z,-0.01
2023-01-21T03:21:05.408Z,0.03
2023-01-21T03:23:17.499Z,0.02
2023-01-21T03:25:29.601Z,-0.04
2023-01-21T03:27:41.662Z,-0.04
2023-01-21T03:29:53.790Z,-0.05
2023-01-21T03:32:06.679Z,-0.01
2023-01-21T03:34:18.768Z,-0.05
2023-01-21T03:36:30.052Z,-0.04
2023-01-21T03:38:43.607Z,-0.06
2023-01-21T03:40:57.216Z,-0.05
2023-01-21T03:43:09.256Z,-0.09
2023-01-21T03:45:22.881Z,-0.08
2023-01-21T03:47:34.916Z,-0.09
2023-01-21T03:49:47.042Z,-0.09
2023-01-21T03:52:00.635Z,-0.09
2023-01-21T03:54:12.728Z,-0.09
2023-01-21T03:56:24.804Z,-0.08
2023-01-21T03:58:36.879Z,-0.08
2023-01-21T04:00:49.010Z,-0.09
2023-01-21T04:03:02.570Z,-0.12
2023-01-21T04:05:16.134Z,-0.15
2023-01-21T04:07:28.220Z,-0.13
2023-01-21T04:09:40.305Z,-0.16
2023-01-21T04:11:52.404Z,-0.15
2023-01-21T04:14:04.514Z,-0.15
2023-01-21T04:16:16.605Z,-0.13
2023-01-21T04:18:28.675Z,-0.16
2023-01-21T04:20:40.740Z,-0.19
2023-01-21T04:22:55.318Z,-0.23
2023-01-21T04:25:07.428Z,-0.30
2023-01-21T04:27:19.489Z,-0.37
2023-01-21T04:29:33.078Z,-0.44
2023-01-21T04:31:45.173Z,-0.47
2023-01-21T04:33:57.249Z,-0.48
2023-01-21T04:36:09.358Z,-0.52
2023-01-21T04:38:21.415Z,-0.50
2023-01-21T04:40:34.491Z,-0.55
2023-01-21T04:42:46.591Z,-0.60
2023-01-21T04:44:58.683Z,-0.62
2023-01-21T04:47:12.320Z,-0.69
2023-01-21T04:49:25.348Z,-0.70
2023-01-21T04:51:38.938Z,-0.73
2023-01-21T04:53:52.026Z,-0.80
2023-01-21T04:56:04.112Z,-0.81
2023-01-21T04:58:16.216Z,-0.89
2023-01-21T05:00:28.294Z,-0.95
2023-01-21T05:02:40.370Z,-0.92
2023-01-21T05:04:53.944Z,-0.94
2023-01-21T05:07:07.532Z,-0.99
2023-01-21T05:09:19.635Z,-0.94
2023-01-21T05:11:33.526Z,-0.97
2023-01-21T05:13:45.678Z,-1.02
2023-01-21T05:15:57.704Z,-1.02
2023-01-21T05:18:09.802Z,-0.97
2023-01-21T05:20:21.885Z,-0.92
2023-01-21T05:22:34.942Z,-0.87
2023-01-21T05:24:48.506Z,-0.81
2023-01-21T05:27:02.086Z,-0.75
2023-01-21T05:29:15.159Z,-0.75
2023-01-21T05:31:30.922Z,-0.78
2023-01-21T05:33:44.336Z,-0.84
2023-01-21T05:35:57.941Z,-0.86
2023-01-21T05:38:11.028Z,-0.91
2023-01-21T05:40:23.127Z,-1.02
2023-01-21T05:42:35.239Z,-1.02
2023-01-21T05:44:47.306Z,-1.09
2023-01-21T05:46:59.379Z,-1.10
2023-01-21T05:49:12.995Z,-1.07
2023-01-21T05:51:25.080Z,-1.09
2023-01-21T05:53:37.178Z,-1.12
2023-01-21T05:55:51.566Z,-1.13
2023-01-21T05:58:02.810Z,-1.13
2023-01-21T06:00:15.143Z,-1.06
2023-01-21T06:02:27.000Z,-1.02
2023-01-21T06:04:39.094Z,-0.92
2023-01-21T06:06:51.155Z,-0.81
2023-01-21T06:09:04.232Z,-0.73
2023-01-21T06:11:16.313Z,-0.54
2023-01-21T06:13:29.383Z,-0.41
2023-01-21T06:15:41.541Z,-0.36
2023-01-21T06:17:53.550Z,-0.31
2023-01-21T06:20:07.182Z,-0.24
2023-01-21T06:22:19.227Z,-0.19
2023-01-21T06:24:31.311Z,-0.11
2023-01-21T06:26:43.415Z,-0.05
2023-01-21T06:28:56.991Z,-0.01
2023-01-21T06:31:10.670Z,0.00
2023-01-21T06:33:24.158Z,0.02
2023-01-21T06:35:37.759Z,0.03
2023-01-21T06:37:51.396Z,0.06
2023-01-21T06:40:04.428Z,0.09
2023-01-21T06:42:18.063Z,0.12
2023-01-21T06:44:31.638Z,0.20
2023-01-21T06:46:52.191Z,0.25
2023-01-21T06:48:59.316Z,0.24
2023-01-21T06:51:12.921Z,0.27
2023-01-21T06:53:24.977Z,0.31
2023-01-21T06:55:38.541Z,0.34
2023-01-21T06:57:52.120Z,0.36
2023-01-21T07:00:04.253Z,0.39
2023-01-21T07:02:16.302Z,0.45
2023-01-21T07:04:28.402Z,0.48
2023-01-21T07:06:42.047Z,0.51
2023-01-21T07:08:54.075Z,0.53
2023-01-21T07:11:06.158Z,0.60
2023-01-21T07:13:19.242Z,0.64
2023-01-21T07:14:19.192Z,0.67
2023-01-21T07:16:31.418Z,0.68
2023-01-21T07:18:45.448Z,0.75
2023-01-21T07:20:57.569Z,0.78
2023-01-21T07:23:09.146Z,0.86
2023-01-21T07:25:23.738Z,0.90
2023-01-21T07:27:37.340Z,0.92
2023-01-21T07:29:49.394Z,0.92
2023-01-21T07:32:03.071Z,0.96
2023-01-21T07:34:16.392Z,1.00
2023-01-21T07:36:28.490Z,0.98
2023-01-21T07:38:42.093Z,0.97
2023-01-21T07:40:55.667Z,0.97
2023-01-21T07:43:12.239Z,0.97
2023-01-21T07:45:25.838Z,0.97
2023-01-21T07:47:39.549Z,1.00
2023-01-21T07:49:51.579Z,1.03
2023-01-21T07:52:05.981Z,1.04
2023-01-21T07:54:17.219Z,1.04
2023-01-21T07:57:13.603Z,1.06
2023-01-21T07:59:04.411Z,1.07
2023-01-21T08:01:05.121Z,1.07
2023-01-21T08:03:17.097Z,1.08
2023-01-21T08:05:29.183Z,1.08
2023-01-21T08:07:42.180Z,1.08
2023-01-21T08:09:56.387Z,1.10
2023-01-21T08:12:07.214Z,1.08
2023-01-21T08:14:19.258Z,1.08
2023-01-21T08:16:31.399Z,1.08
2023-01-21T08:18:45.011Z,1.08
2023-01-21T08:20:57.049Z,1.08
2023-01-21T08:23:10.634Z,1.08
2023-01-21T08:25:22.680Z,1.12
2023-01-21T08:27:34.761Z,1.14
2023-01-21T08:29:50.362Z,1.15
2023-01-21T08:32:02.443Z,1.22
2023-01-21T08:34:16.033Z,1.25
2023-01-21T08:36:29.155Z,1.26
2023-01-21T08:38:42.283Z,1.25
2023-01-21T08:40:54.376Z,1.29
2023-01-21T08:43:07.465Z,1.26
2023-01-21T08:45:20.930Z,1.28
2023-01-21T08:47:34.125Z,1.28
2023-01-21T08:49:47.553Z,1.26
2023-01-21T08:52:00.825Z,1.29
2023-01-21T08:54:15.218Z,1.32
2023-01-21T08:56:28.010Z,1.36
2023-01-21T08:58:41.567Z,1.39
2023-01-21T09:00:55.231Z,1.43
2023-01-21T09:03:08.267Z,1.46
2023-01-21T09:05:21.879Z,1.50
2023-01-21T09:07:34.005Z,1.52
2023-01-21T09:09:47.587Z,1.54
2023-01-21T09:11:59.657Z,1.60
2023-01-21T09:14:13.233Z,1.58
2023-01-21T09:16:25.381Z,1.58
2023-01-21T09:18:38.979Z,1.60
2023-01-21T09:20:52.521Z,1.62
2023-01-21T09:23:04.622Z,1.65
2023-01-21T09:25:19.493Z,1.65
2023-01-21T09:27:30.303Z,1.72
2023-01-21T09:29:43.412Z,1.75
2023-01-21T09:31:56.995Z,1.76
2023-01-21T09:34:10.571Z,1.83
2023-01-21T09:36:28.650Z,1.85
2023-01-21T09:38:44.243Z,1.91
2023-01-21T09:40:57.859Z,1.94
2023-01-21T09:43:11.400Z,1.98
2023-01-21T09:45:23.504Z,1.94
2023-01-21T09:47:37.112Z,1.97
2023-01-21T09:49:50.686Z,1.99
2023-01-21T09:52:04.289Z,2.06
2023-01-21T09:54:21.122Z,2.08
2023-01-21T09:56:33.588Z,2.13
2023-01-21T09:58:45.575Z,2.17
2023-01-21T10:00:57.743Z,2.19
2023-01-21T10:03:11.279Z,2.23
2023-01-21T10:05:23.350Z,2.26
2023-01-21T10:07:36.923Z,2.23
2023-01-21T10:09:50.558Z,2.27
2023-01-21T10:12:04.121Z,2.30
2023-01-21T10:14:17.747Z,2.31
2023-01-21T10:16:32.333Z,2.34
2023-01-21T10:18:45.890Z,2.34
2023-01-21T10:20:57.970Z,2.28
2023-01-21T10:23:10.067Z,2.35
2023-01-21T10:25:23.686Z,2.40
2023-01-21T10:27:37.230Z,2.41
2023-01-21T10:29:50.242Z,2.41
2023-01-21T10:32:02.905Z,2.51
2023-01-21T10:34:15.975Z,2.55
2023-01-21T10:36:33.514Z,2.55
2023-01-21T10:38:45.992Z,2.59
2023-01-21T10:40:58.757Z,2.58
2023-01-21T10:43:12.351Z,2.64
2023-01-21T10:45:27.896Z,2.66
2023-01-21T10:47:41.554Z,2.64
2023-01-21T10:49:54.633Z,2.64
2023-01-21T10:52:07.695Z,2.61
2023-01-21T10:54:22.630Z,2.61
2023-01-21T10:55:21.264Z,2.61
2023-01-21T10:57:33.346Z,2.70
2023-01-21T10:59:46.949Z,2.77
2023-01-21T11:02:02.524Z,2.79
2023-01-21T11:04:16.125Z,2.85
2023-01-21T11:06:31.689Z,2.87
2023-01-21T11:08:44.842Z,2.89
2023-01-21T11:10:59.391Z,2.88
2023-01-21T11:13:13.041Z,2.97
2023-01-21T11:15:28.672Z,3.06
2023-01-21T11:17:42.210Z,3.09
2023-01-21T11:20:06.247Z,3.16
2023-01-21T11:22:24.748Z,3.16
2023-01-21T11:25:16.501Z,3.13
2023-01-21T11:27:31.080Z,3.18
2023-01-21T11:29:49.530Z,3.23
2023-01-21T11:32:09.285Z,3.21
2023-01-21T11:34:55.072Z,3.28
2023-01-21T11:36:58.567Z,3.27
2023-01-21T11:39:10.674Z,3.31
2023-01-21T11:41:23.734Z,3.31
2023-01-21T11:43:37.367Z,3.33
2023-01-21T11:45:50.427Z,3.36
2023-01-21T11:48:03.992Z,3.31
2023-01-21T11:50:20.036Z,3.36
2023-01-21T11:52:34.172Z,3.43
2023-01-21T11:54:47.280Z,3.50
2023-01-21T11:57:00.388Z,3.47
2023-01-21T11:59:16.573Z,3.57
2023-01-21T12:01:26.044Z,3.53
2023-01-21T12:03:39.723Z,3.58
2023-01-21T12:05:51.714Z,3.62
2023-01-21T12:08:05.271Z,3.62
2023-01-21T12:10:17.579Z,3.62
2023-01-21T12:12:33.543Z,3.61
2023-01-21T12:14:50.981Z,3.53
2023-01-21T12:16:57.122Z,3.49
2023-01-21T12:19:09.207Z,3.47
2023-01-21T12:21:22.768Z,3.47
2023-01-21T12:23:34.853Z,3.49
2023-01-21T12:25:48.441Z,3.50
2023-01-21T12:28:00.542Z,3.54
2023-01-21T12:30:13.606Z,3.54
2023-01-21T12:32:25.688Z,3.60
2023-01-21T12:34:37.784Z,3.62
2023-01-21T12:36:49.862Z,3.68
2023-01-21T12:39:02.946Z,3.71
2023-01-21T12:41:15.004Z,3.71
2023-01-21T12:43:27.111Z,3.72
2023-01-21T12:45:39.176Z,3.78
2023-01-21T12:47:52.761Z,3.75
2023-01-21T12:50:04.864Z,3.76
2023-01-21T12:52:16.977Z,3.76
2023-01-21T12:54:29.044Z,3.76
2023-01-21T12:56:41.146Z,3.79
2023-01-21T12:58:54.189Z,3.79
2023-01-21T13:01:06.465Z,3.78
2023-01-21T13:03:18.394Z,3.75
2023-01-21T13:05:30.508Z,3.75
2023-01-21T13:07:42.583Z,3.72
2023-01-21T13:09:55.670Z,3.72
2023-01-21T13:12:07.757Z,3.76
2023-01-21T13:14:19.875Z,3.72
2023-01-21T13:16:31.936Z,3.76
2023-01-21T13:18:44.011Z,3.76
2023-01-21T13:20:57.108Z,3.75
2023-01-21T13:23:09.149Z,3.71
2023-01-21T13:25:22.246Z,3.70
2023-01-21T13:27:34.326Z,3.70
2023-01-21T13:29:47.467Z,3.67
2023-01-21T13:31:59.515Z,3.70
2023-01-21T13:34:11.584Z,3.70
2023-01-21T13:36:23.668Z,3.68
2023-01-21T13:38:39.263Z,3.67
2023-01-21T13:40:54.843Z,3.67
2023-01-21T13:43:06.948Z,3.65
2023-01-21T13:45:21.556Z,3.68
2023-01-21T13:48:13.059Z,3.70
2023-01-21T13:50:31.835Z,3.72
2023-01-21T13:52:52.460Z,3.72
2023-01-21T13:55:07.071Z,3.78
2023-01-21T13:57:24.936Z,3.80
2023-01-21T13:59:40.327Z,3.80
2023-01-21T14:01:56.016Z,3.79
2023-01-21T14:04:13.999Z,3.78
2023-01-21T14:06:27.604Z,3.76
2023-01-21T14:08:43.184Z,3.71
2023-01-21T14:10:56.774Z,3.71
2023-01-21T14:13:10.408Z,3.72
2023-01-21T14:15:23.964Z,3.70
2023-01-21T14:17:39.536Z,3.65
2023-01-21T14:19:55.151Z,3.62
2023-01-21T14:22:10.718Z,3.61
2023-01-21T14:24:24.337Z,3.53
2023-01-21T14:26:37.929Z,3.52
2023-01-21T14:28:54.496Z,3.49
2023-01-21T14:31:06.669Z,3.52
2023-01-21T14:33:22.185Z,3.52
2023-01-21T14:35:34.288Z,3.50
2023-01-21T14:37:47.873Z,3.49
2023-01-21T14:40:10.360Z,3.49
2023-01-21T14:42:25.822Z,3.50
2023-01-21T14:44:46.700Z,3.46
2023-01-21T14:47:04.570Z,3.39
2023-01-21T14:49:22.566Z,3.40
2023-01-21T14:51:40.656Z,3.39
2023-01-21T14:53:56.237Z,3.39
2023-01-21T14:56:09.823Z,3.43
2023-01-21T14:58:21.939Z,3.40
2023-01-21T15:00:37.528Z,3.36
2023-01-21T15:02:51.115Z,3.36
2023-01-21T15:05:06.699Z,3.31
2023-01-21T15:07:23.152Z,3.33
2023-01-21T15:09:35.910Z,3.30
2023-01-21T15:11:51.475Z,3.34
2023-01-21T15:14:07.058Z,3.30
2023-01-21T15:16:19.208Z,3.28
2023-01-21T15:18:34.756Z,3.33
2023-01-21T15:20:50.324Z,3.36
2023-01-21T15:23:03.921Z,3.31
2023-01-21T15:25:20.051Z,3.39
2023-01-21T15:27:33.087Z,3.39
2023-01-21T15:29:46.684Z,3.33
2023-01-21T15:32:00.449Z,3.36
2023-01-21T15:34:12.387Z,3.34
2023-01-21T15:36:29.297Z,3.31
2023-01-21T15:38:41.562Z,3.31
2023-01-21T15:40:55.140Z,3.33
2023-01-21T15:43:10.773Z,3.34
2023-01-21T15:45:26.324Z,3.33
2023-01-21T15:47:41.935Z,3.31
2023-01-21T15:49:55.547Z,3.30
2023-01-21T15:52:11.141Z,3.30
2023-01-21T15:54:24.729Z,3.33
2023-01-21T15:56:37.771Z,3.30
2023-01-21T15:58:53.370Z,3.31
2023-01-21T16:01:07.063Z,3.34
2023-01-21T16:03:20.015Z,3.34
2023-01-21T16:05:35.620Z,3.34
2023-01-21T16:07:49.193Z,3.33
2023-01-21T16:10:04.807Z,3.31
2023-01-21T16:12:18.382Z,3.24
2023-01-21T16:14:31.976Z,3.20
2023-01-21T16:16:46.585Z,3.15
2023-01-21T16:18:59.672Z,3.06
2023-01-21T16:21:13.269Z,2.98
2023-01-21T16:23:27.686Z,2.95
2023-01-21T16:25:40.406Z,2.92
2023-01-21T16:27:56.022Z,2.92
2023-01-21T16:30:09.600Z,2.92
2023-01-21T16:32:23.197Z,2.97
2023-01-21T16:34:36.797Z,2.94
2023-01-21T16:36:50.459Z,2.94
2023-01-21T16:39:04.046Z,2.85
2023-01-21T16:41:17.606Z,2.79
2023-01-21T16:43:29.713Z,2.73
2023-01-21T16:45:46.155Z,2.64
2023-01-21T16:47:58.906Z,2.53
2023-01-21T16:50:12.507Z,2.46
2023-01-21T16:52:25.634Z,2.40
2023-01-21T16:54:39.205Z,2.35
2023-01-21T16:56:52.805Z,2.33
2023-01-21T16:59:06.396Z,2.27
2023-01-21T17:01:20.005Z,2.23
2023-01-21T17:03:33.576Z,2.20
2023-01-21T17:05:47.117Z,2.16
2023-01-21T17:08:00.740Z,2.12
2023-01-21T17:10:13.798Z,2.06
2023-01-21T17:12:27.416Z,1.99
2023-01-21T17:14:40.442Z,1.94
2023-01-21T17:16:55.092Z,1.91
2023-01-21T17:19:08.704Z,1.89
2023-01-21T17:21:24.242Z,1.89
2023-01-21T17:23:38.376Z,1.89
2023-01-21T17:25:50.749Z,1.90
2023-01-21T17:28:06.204Z,1.93
2023-01-21T17:30:19.022Z,1.94
2023-01-21T17:32:33.581Z,1.98
2023-01-21T17:34:50.174Z,2.02
2023-01-21T17:37:05.795Z,2.04
2023-01-21T17:39:23.049Z,2.06
2023-01-21T17:41:38.658Z,2.04
2023-01-21T17:44:23.934Z,2.06
2023-01-21T17:46:39.382Z,2.08
2023-01-21T17:48:55.944Z,2.08
2023-01-21T17:51:12.047Z,2.08
2023-01-21T17:53:28.116Z,2.08
2023-01-21T17:55:43.723Z,2.09
2023-01-21T17:57:59.316Z,2.09
2023-01-21T18:00:17.434Z,2.09
2023-01-21T18:02:33.027Z,2.10
2023-01-21T18:04:44.123Z,2.08
2023-01-21T18:06:59.714Z,2.06
2023-01-21T18:09:16.286Z,2.04
2023-01-21T18:11:35.444Z,2.06
2023-01-21T18:13:51.408Z,2.06
2023-01-21T18:17:10.643Z,2.09
2023-01-21T18:19:24.153Z,2.06
2023-01-21T18:21:42.177Z,2.04
2023-01-21T18:24:37.109Z,2.01
2023-01-21T18:27:24.853Z,1.99
2023-01-21T18:30:53.285Z,1.98
2023-01-21T18:33:10.258Z,1.93
2023-01-21T18:35:31.559Z,1.91
2023-01-21T18:39:01.065Z,1.87
2023-01-21T18:42:30.559Z,1.87
2023-01-21T18:50:05.607Z,1.87
2023-01-21T18:57:36.454Z,1.83
2023-01-21T19:06:27.637Z,1.91
2023-01-21T19:22:28.616Z,2.04
2023-01-21T19:52:39.142Z,1.99
2023-01-21T19:55:36.853Z,1.99
2023-01-21T19:58:42.284Z,1.91
2023-01-21T20:01:19.656Z,1.89
2023-01-21T20:04:00.191Z,1.87
2023-01-21T20:07:47.957Z,1.93
2023-01-21T20:12:47.494Z,1.90
2023-01-21T20:15:05.504Z,1.89
2023-01-21T20:19:53.369Z,1.90
2023-01-21T20:25:16.644Z,1.93
2023-01-21T20:27:21.223Z,1.98
2023-01-21T20:29:55.723Z,2.01
2023-01-21T20:30:41.985Z,2.01
2023-01-21T20:36:19.445Z,2.04
2023-01-21T20:48:58.556Z,2.15
2023-01-21T20:51:17.687Z,2.20
2023-01-21T20:54:00.280Z,2.26
2023-01-21T20:54:56.236Z,2.22
2023-01-21T21:25:15.744Z,2.30
2023-01-21T21:27:30.677Z,2.34
2023-01-21T21:29:46.743Z,2.34
2023-01-21T21:32:05.468Z,2.35
2023-01-21T21:34:22.537Z,2.37
2023-01-21T21:36:40.877Z,2.34
2023-01-21T21:38:53.786Z,2.34
2023-01-21T21:41:11.906Z,2.35
2023-01-21T21:43:30.004Z,2.37
2023-01-21T21:45:48.112Z,2.37
2023-01-21T21:48:03.727Z,2.34
2023-01-21T21:50:23.594Z,2.35
2023-01-21T21:52:40.876Z,2.33
2023-01-21T21:54:56.493Z,2.34
2023-01-21T21:57:11.842Z,2.35
2023-01-21T21:59:25.624Z,2.34
2023-01-21T22:01:41.211Z,2.34
2023-01-21T22:03:59.280Z,2.34
2023-01-21T22:07:10.863Z,2.35
2023-01-21T22:09:26.629Z,2.33
2023-01-21T22:11:41.067Z,2.33
2023-01-21T22:13:57.712Z,2.31
2023-01-21T22:16:15.720Z,2.30
2023-01-21T22:18:33.910Z,2.30
2023-01-21T22:20:52.011Z,2.28
2023-01-21T22:23:11.084Z,2.28
2023-01-21T22:25:25.723Z,2.26
2023-01-21T22:27:42.596Z,2.23
2023-01-21T22:30:01.558Z,2.20
2023-01-21T22:32:20.746Z,2.23
2023-01-21T22:34:38.482Z,2.23
2023-01-21T22:38:11.983Z,2.23
2023-01-21T22:40:27.349Z,2.17
2023-01-21T22:42:44.613Z,2.17
2023-01-21T22:45:06.089Z,2.13
2023-01-21T22:47:37.548Z,2.13
2023-01-21T22:50:28.446Z,2.12
2023-01-21T22:53:02.628Z,2.10
2023-01-21T22:55:24.241Z,2.09
2023-01-21T22:57:44.751Z,2.08
2023-01-21T23:00:06.246Z,2.06
2023-01-21T23:03:14.155Z,2.04
2023-01-21T23:05:31.332Z,2.04
2023-01-21T23:09:45.083Z,2.04
2023-01-21T23:12:03.771Z,2.02
2023-01-21T23:14:21.839Z,2.02
2023-01-21T23:16:37.457Z,2.01
2023-01-21T23:18:54.743Z,1.99
2023-01-21T23:21:13.789Z,2.01
2023-01-21T23:23:36.248Z,2.01
2023-01-21T23:25:52.059Z,2.02
2023-01-21T23:28:06.057Z,2.02
2023-01-21T23:30:24.156Z,2.02
2023-01-21T23:32:41.644Z,2.02
2023-01-21T23:35:13.672Z,2.04
2023-01-21T23:37:29.314Z,2.06
2023-01-21T23:39:47.563Z,2.04
2023-01-21T23:42:03.183Z,2.04
2023-01-21T23:44:21.213Z,2.04
2023-01-21T23:46:34.405Z,2.02
2023-01-21T23:48:55.321Z,2.04
2023-01-21T23:51:08.097Z,2.06
2023-01-21T23:53:23.894Z,2.04
2023-01-21T23:55:40.783Z,2.06
2023-01-21T23:57:55.414Z,2.04
